Station info - map view · info · telemetry · weather · raw · status · beacons · messages · bulletins · browse · moving · my account
Callsign, ship name or locator: Clear       
It is possible to search using wildcards (*?) after a prefix. Example: OH*
APRS station OE3PYC-9 - show graphs
Map loading...
Comment: Peter VX-8DE ADL329
Mic-E message: En route
Location: 48°11.89' N 16°33.47' E - locator JN88GE67WN - show map - static map
0.5 miles Southeast bearing 135° from Groß-Enzersdorf (Gross-Enzersdorf), Politischer Bezirk Gänserndorf, Lower Austria, Austria [?]
3.4 miles South bearing 186° from Raasdorf, Politischer Bezirk Gänserndorf, Lower Austria, Austria
8.6 miles East bearing 95° from Vienna, Politischer Bezirk Wien (Stadt), Vienna, Austria
25.5 miles West bearing 278° from Bratislava, Bratislavský, Slovakia
Last position: 2019-12-05 08:22:48 EST (4h45m ago)
2019-12-05 14:22:48 CET local time at Groß-Enzersdorf, Austria [?]
Altitude: 522 ft
Course: 293°
Speed: 0 MPH
Device: Yaesu: VX-8 (ht)
Last path: OE3PYC-9>TX1Q89 via WIDE1-1,WIDE2-1,qAR,OE3XXI (good)
Positions stored: 74160
Packet rate: 347 seconds between packets on average during 7294 seconds.
Other SSIDs: OE3PYC-10 OE3PYC-5
Stations near current position of OE3PYC-9 - show more
callsign distance last heard - EST      callsign distance last heard - EST
OE3PYC-1019.4 yards 0°2019-11-13 14:04:36 R2510383_2.2 miles 80°2019-11-17 00:26:40
R25103832.3 miles 82°2019-11-17 00:26:18 MUFLON 63.1 miles 209°2019-12-05 12:25:53
MUSTANG3.2 miles 209°2019-12-05 13:04:53 OE1FUC-73.3 miles 302°2019-11-30 15:11:33
OE1FUC3.3 miles 303°2019-11-21 13:37:22 OE1FUC-93.3 miles 302°2019-11-17 12:36:03
OC3REC-93.5 miles 125°2019-12-04 10:49:21 OE3REC-93.5 miles 125°2019-12-05 13:01:03
OE3REC-63.5 miles 125°2019-12-01 15:11:01 OE3XXI3.5 miles 125°2019-12-05 13:07:45
067728877 TZ3.9 miles 244°2019-12-05 03:55:08 LINZ3.9 miles 248°2019-12-05 13:07:53
FREYENSTEIN4.0 miles 249°2019-12-05 13:07:53 AMAVERDE4.0 miles 247°2019-12-05 13:03:53
VIVALDI4.0 miles 250°2019-12-05 13:07:42 OE1TKS4.1 miles 266°2019-11-16 11:21:41
VIKING LEGEND4.1 miles 247°2019-12-03 10:21:24 OE3WYC-84.1 miles 285°2019-12-05 10:07:20
Stations which heard OE3PYC-9 directly on radio –
callsign pkts first heard - EST last heard longest (tx => rx) longest at - EST
OE1XQR 83 2019-12-03 01:34:52 2019-12-05 08:19:46 JN87EW > JN88EE 16.7 miles 359° 2019-12-03 08:31:44
OE6XTR 53 2019-12-03 01:35:56 2019-12-05 08:14:35 JN88EG > JN77VN 56.5 miles 209° 2019-12-04 12:11:00
OE3XKR 2 2019-12-03 02:09:33 2019-12-03 02:15:38 JN88EE > JN88EN 27.7 miles 360° 2019-12-03 02:15:38
OE1SSU-10 11 2019-12-03 02:06:27 2019-12-03 08:51:40 JN87EV > JN88DD 16.7 miles 340° 2019-12-03 02:39:11
OE1XDS-10 18 2019-12-03 02:02:24 2019-12-05 08:17:44 JN88GE > JN88EF 9.5 miles 279° 2019-12-05 08:17:44
OE3XIA-10 10 2019-12-03 01:38:58 2019-12-04 15:20:54 JN87EV > JN88CF 25.4 miles 342° 2019-12-03 02:40:13
OE3XTR-2 8 2019-12-03 02:37:09 2019-12-03 08:30:41 JN87GR > JN87AT 25.0 miles 285° 2019-12-03 08:12:13
OE1IWA-11 10 2019-12-03 02:19:44 2019-12-03 08:50:36 JN88EA > JN88ED 8.7 miles 353° 2019-12-03 08:38:15
OE1TRB-15 11 2019-12-03 01:58:21 2019-12-05 07:27:46 JN88GE > JN88EF 8.4 miles 290° 2019-12-05 07:27:46
OE3TRB-15 1 2019-12-03 08:31:42 2019-12-03 08:31:42 JN87EW > JN87BW 13.1 miles 274° 2019-12-03 08:31:42
HG1PSO-2 8 2019-12-03 03:03:48 2019-12-03 08:09:10 JN87GQ > JN87HQ 1.7 miles 166° 2019-12-03 08:09:10
OE3PAS-15 8 2019-12-03 02:27:57 2019-12-03 08:40:18 JN87EW > JN87DX 5.4 miles 310° 2019-12-03 02:37:15
OE3BUB-10 28 2019-12-03 01:54:14 2019-12-05 08:08:49 JN88GE > JN88FG 7.4 miles 322° 2019-12-05 08:08:49
OE3XFW-10 1 2019-12-03 08:39:17 2019-12-03 08:39:17 JN88EA > JN78XD 18.7 miles 296° 2019-12-03 08:39:17
OE4WUW-5 2 2019-12-03 02:43:22 2019-12-03 08:27:36 JN87FU > JN87EU 1.9 miles 285° 2019-12-03 02:43:22
OE3PDB-10 5 2019-12-03 02:19:46 2019-12-03 08:49:34 JN88DC > JN88BG 15.8 miles 317° 2019-12-03 02:24:53
OE3KJN-10 1 2019-12-03 02:38:11 2019-12-03 02:38:11 JN87EW > JN87EX 2.6 miles 0° 2019-12-03 02:38:11
OE1XJW-10 16 2019-12-03 02:05:26 2019-12-05 08:16:04 JN87GR > JN88EG 37.0 miles 350° 2019-12-03 08:14:15
OE3ELJ-15 1 2019-12-03 02:43:22 2019-12-03 02:43:22 JN87FU > JN87CW 10.0 miles 304° 2019-12-03 02:43:22
OE3XXI 6 2019-12-03 01:35:55 2019-12-05 08:22:48 JN88GE > JN88HE 4.0 miles 127° 2019-12-05 08:08:52
OE4ENU-2 18 2019-12-03 02:45:29 2019-12-03 08:24:33 JN87GR > JN87FU 7.3 miles 334° 2019-12-03 08:13:14
OE1XUR-10 46 2019-12-03 01:34:51 2019-12-05 08:13:56 JN87EV > JN88ED 17.6 miles 357° 2019-12-03 08:29:41
OE1XUR 56 2019-12-03 01:37:55 2019-12-05 08:22:49 JN87FU > JN88ED 20.0 miles 357° 2019-12-03 02:42:15

Only position packets which were originated by the station are shown here. The range statistics show some extra long hops, because some digipeaters do not correctly add themselves to the digipeater path. Please check the raw packets.
About this site
This page shows real-time information collected from the Automatic Position Reporting System Internet network (APRS-IS). APRS is used by amateur (ham) radio operators to transmit real-time position information, weather data, telemetry and messages over the radio. A vehicle equipped with a GPS receiver, a VHF transmitter or HF transceiver and a small computer device called a tracker transmits it's location, speed and course in a small data packet, which is then received by a nearby iGate receiving site which forwards the packet on the Internet. Systems connected to the Internet can send information on the APRS-IS without a radio transmitter, or collect and display information transmitted anywhere in the world.
User guide · FAQ · Blog · Discussion group · Linking to aprs.fi · AIS sites · Service status · Database statistics · Advertising on aprs.fi · Technical details · API · Change log · Planned changes · Credits and thanks · Terms Of Service · iPhone/iPad APRS